Time;durP1;ratioP1;P1;durP2;ratioP2;P2;SDS_P1;SDS_P2;PMS_P1;PMS_P2;Temp;Humidity;BMP_temperature;BMP_pressure;BME280_temperature;BME280_humidity;BME280_pressure;Samples;Min_cycle;Max_cycle;Signal;HPM_P1;HPM_P2
2020/12/11 00:00:19;;;;;;;29.08;15.45;;;3.70;74.50;;;;;;5024312;28;20037;-63
2020/12/11 00:02:44;;;;;;;27.38;14.93;;;3.60;74.20;;;;;;5027113;28;20076;-62
2020/12/11 00:05:10;;;;;;;26.85;15.25;;;3.60;75.00;;;;;;5025511;28;20044;-61
2020/12/11 00:07:39;;;;;;;27.42;15.00;;;3.70;74.90;;;;;;5025654;28;20221;-61
2020/12/11 00:10:05;;;;;;;27.45;15.55;;;3.80;74.70;;;;;;5025362;28;20068;-62
2020/12/11 00:12:31;;;;;;;26.30;14.32;;;3.60;74.40;;;;;;5025056;28;20079;-62
2020/12/11 00:14:56;;;;;;;26.92;15.25;;;3.50;74.90;;;;;;5025582;28;20034;-62
2020/12/11 00:17:22;;;;;;;31.08;15.68;;;3.50;75.00;;;;;;5025522;28;20038;-62
2020/12/11 00:19:47;;;;;;;29.20;15.90;;;3.50;74.90;;;;;;5025132;28;20034;-62
2020/12/11 00:22:14;;;;;;;26.05;15.43;;;3.60;74.80;;;;;;5057137;28;20040;-62
2020/12/11 00:24:41;;;;;;;26.23;14.63;;;3.50;74.80;;;;;;5024961;28;20029;-62
2020/12/11 00:27:07;;;;;;;25.77;14.35;;;3.70;75.10;;;;;;5024871;28;20030;-62
2020/12/11 00:29:33;;;;;;;26.73;14.93;;;3.70;74.70;;;;;;5026353;28;20033;-62
2020/12/11 00:32:04;;;;;;;27.17;14.90;;;3.60;75.10;;;;;;5024915;28;20046;-62
2020/12/11 00:34:30;;;;;;;27.25;14.52;;;3.60;75.40;;;;;;5024993;28;20038;-62
2020/12/11 00:36:56;;;;;;;27.15;15.27;;;3.50;75.50;;;;;;5024660;28;20108;-62
2020/12/11 00:39:22;;;;;;;26.45;14.43;;;3.50;75.00;;;;;;5057072;28;20089;-62
2020/12/11 00:41:47;;;;;;;25.38;14.27;;;3.60;75.50;;;;;;5025361;28;20034;-62
2020/12/11 00:44:13;;;;;;;27.73;15.30;;;3.70;75.50;;;;;;5024874;28;20084;-61
2020/12/11 00:46:38;;;;;;;26.38;15.10;;;3.70;74.80;;;;;;5024792;28;20134;-61
2020/12/11 00:49:04;;;;;;;27.88;14.93;;;3.70;75.20;;;;;;5024441;28;20387;-62
2020/12/11 00:51:30;;;;;;;29.60;15.48;;;3.70;75.10;;;;;;5022148;28;20045;-62
2020/12/11 00:53:55;;;;;;;26.73;14.68;;;3.70;74.80;;;;;;5025089;28;20217;-62
2020/12/11 00:56:22;;;;;;;26.55;14.45;;;3.60;75.40;;;;;;5024785;28;20321;-61
2020/12/11 00:58:48;;;;;;;27.23;15.57;;;3.50;75.20;;;;;;5024230;28;20229;-62
2020/12/11 01:01:13;;;;;;;28.10;15.05;;;3.50;75.40;;;;;;5065654;28;20092;-62
2020/12/11 01:03:39;;;;;;;26.95;14.95;;;3.50;75.40;;;;;;5044235;28;20033;-62
2020/12/11 01:06:05;;;;;;;27.42;15.13;;;3.50;75.40;;;;;;5043984;28;20096;-62
2020/12/11 01:08:30;;;;;;;28.02;14.45;;;3.70;75.50;;;;;;5045397;28;20064;-61
2020/12/11 01:10:56;;;;;;;27.92;14.90;;;3.70;75.50;;;;;;5044319;28;20217;-61
2020/12/11 01:13:21;;;;;;;25.50;14.52;;;3.70;75.20;;;;;;5043715;28;20060;-61
2020/12/11 01:15:47;;;;;;;23.50;13.82;;;3.70;75.10;;;;;;5043867;28;20378;-62
2020/12/11 01:18:12;;;;;;;24.85;13.70;;;3.70;75.20;;;;;;5042573;28;20033;-62
2020/12/11 01:20:38;;;;;;;28.17;15.98;;;3.60;75.10;;;;;;5045463;28;20052;-62
2020/12/11 01:23:04;;;;;;;27.75;15.27;;;3.50;75.40;;;;;;5042678;28;20044;-62
2020/12/11 01:25:30;;;;;;;29.55;15.40;;;3.40;75.40;;;;;;5043542;28;20080;-62
2020/12/11 01:27:55;;;;;;;28.63;15.35;;;3.50;75.50;;;;;;5043592;28;20037;-62
2020/12/11 01:30:21;;;;;;;28.73;15.40;;;3.60;75.20;;;;;;5043704;28;20033;-61
2020/12/11 01:32:46;;;;;;;25.63;14.50;;;3.70;75.70;;;;;;5044995;28;20041;-62
2020/12/11 01:35:12;;;;;;;26.05;14.32;;;3.60;75.10;;;;;;5043901;28;20040;-62
2020/12/11 01:37:37;;;;;;;28.23;14.80;;;3.50;75.40;;;;;;5042024;28;20082;-62
2020/12/11 01:40:04;;;;;;;27.10;14.98;;;3.60;75.40;;;;;;5043209;28;20103;-62
2020/12/11 01:42:29;;;;;;;27.90;14.82;;;3.70;75.50;;;;;;5043491;28;20057;-62
2020/12/11 01:44:55;;;;;;;26.23;14.68;;;3.70;75.60;;;;;;5044686;28;20044;-62
2020/12/11 01:47:21;;;;;;;26.40;14.68;;;3.60;75.40;;;;;;5024011;28;20095;-62
2020/12/11 01:49:46;;;;;;;27.08;14.45;;;3.60;75.20;;;;;;5023362;28;20038;-62
2020/12/11 01:52:16;;;;;;;28.95;15.20;;;3.50;74.90;;;;;;5022934;28;20050;-61
2020/12/11 01:54:42;;;;;;;27.25;15.00;;;3.50;75.10;;;;;;5023629;28;20354;-61
2020/12/11 01:57:26;;;;;;;26.48;14.55;;;3.50;75.10;;;;;;5022314;28;20036;-62
2020/12/11 01:59:53;;;;;;;28.15;15.02;;;3.60;75.10;;;;;;5023562;28;20226;-62
2020/12/11 02:02:20;;;;;;;26.65;14.35;;;3.80;74.70;;;;;;5022813;28;20110;-62
2020/12/11 02:04:45;;;;;;;27.60;14.80;;;3.80;74.40;;;;;;5036334;28;20037;-61
2020/12/11 02:07:11;;;;;;;26.85;14.57;;;3.60;74.90;;;;;;5043202;28;20052;-62
2020/12/11 02:09:38;;;;;;;29.48;15.45;;;3.40;75.10;;;;;;5043091;28;20096;-61
2020/12/11 02:12:03;;;;;;;29.08;15.32;;;3.30;75.80;;;;;;5044332;28;20029;-62
2020/12/11 02:14:29;;;;;;;30.17;14.75;;;3.60;76.30;;;;;;5042766;28;20053;-62
2020/12/11 02:17:03;;;;;;;30.35;16.30;;;3.40;75.70;;;;;;5041763;28;20098;-62
2020/12/11 02:19:33;;;;;;;28.02;15.40;;;3.60;75.80;;;;;;5042907;28;20120;-62
2020/12/11 02:22:02;;;;;;;30.25;15.52;;;3.50;75.80;;;;;;5042772;28;20108;-61
2020/12/11 02:24:28;;;;;;;31.50;16.40;;;3.40;76.00;;;;;;5043019;28;20040;-61
2020/12/11 02:26:57;;;;;;;32.55;16.75;;;3.40;76.00;;;;;;5044656;28;20041;-61
2020/12/11 02:29:23;;;;;;;32.00;17.02;;;3.40;76.20;;;;;;5042865;28;20037;-61
2020/12/11 02:31:49;;;;;;;30.73;16.55;;;3.60;75.70;;;;;;5042518;28;20102;-61
2020/12/11 02:34:14;;;;;;;32.85;16.80;;;3.30;76.20;;;;;;5042479;28;20045;-62
2020/12/11 02:36:40;;;;;;;32.95;16.45;;;3.10;76.60;;;;;;5042548;28;20038;-61
2020/12/11 02:39:06;;;;;;;35.00;16.83;;;3.40;76.00;;;;;;5041861;28;20308;-61
2020/12/11 02:41:31;;;;;;;32.45;16.23;;;3.20;75.80;;;;;;5042835;28;20021;-61
2020/12/11 02:43:57;;;;;;;36.55;18.35;;;3.10;76.30;;;;;;5042702;28;20045;-61
2020/12/11 02:46:22;;;;;;;35.80;17.67;;;2.80;76.80;;;;;;5042499;28;20037;-61
2020/12/11 02:48:48;;;;;;;38.20;18.55;;;2.90;76.80;;;;;;5036368;28;20038;-61
2020/12/11 02:51:14;;;;;;;38.45;18.33;;;2.90;76.90;;;;;;5022488;28;20088;-61
2020/12/11 02:53:39;;;;;;;40.63;19.55;;;2.90;76.70;;;;;;5023021;28;20037;-62
2020/12/11 02:56:05;;;;;;;43.15;19.13;;;2.90;76.60;;;;;;5022832;28;20038;-62
2020/12/11 02:58:30;;;;;;;41.55;19.60;;;3.10;76.10;;;;;;5022460;28;20257;-62
2020/12/11 03:00:56;;;;;;;38.63;18.70;;;3.00;76.20;;;;;;5022820;28;20221;-62
2020/12/11 03:03:22;;;;;;;36.28;17.85;;;2.90;76.60;;;;;;5022377;28;20026;-62
2020/12/11 03:05:47;;;;;;;39.88;19.67;;;2.80;76.80;;;;;;5023198;28;20313;-61
2020/12/11 03:08:13;;;;;;;41.30;19.63;;;2.70;77.20;;;;;;5023040;28;20034;-62
2020/12/11 03:10:38;;;;;;;34.80;17.33;;;2.70;77.10;;;;;;5022965;28;20041;-62
2020/12/11 03:13:04;;;;;;;42.05;19.10;;;2.70;76.70;;;;;;5022481;28;20100;-62
2020/12/11 03:15:29;;;;;;;41.72;18.88;;;2.60;77.20;;;;;;5026505;28;20049;-62
2020/12/11 03:17:55;;;;;;;43.97;19.95;;;2.60;77.30;;;;;;5059684;28;20101;-62
2020/12/11 03:20:24;;;;;;;43.72;20.00;;;2.60;77.30;;;;;;5026733;28;20367;-61
2020/12/11 03:22:51;;;;;;;43.35;20.40;;;2.70;77.30;;;;;;5026585;28;20056;-62
2020/12/11 03:25:17;;;;;;;40.60;18.35;;;2.70;77.20;;;;;;5024984;28;20097;-62
2020/12/11 03:27:42;;;;;;;41.17;19.77;;;2.80;77.20;;;;;;5026501;28;20202;-62
2020/12/11 03:30:08;;;;;;;40.30;20.13;;;2.80;76.90;;;;;;5026221;28;20026;-62
2020/12/11 03:32:33;;;;;;;40.90;19.20;;;2.60;77.20;;;;;;5027716;28;20088;-62
2020/12/11 03:34:59;;;;;;;37.60;18.33;;;2.50;77.80;;;;;;5026391;28;20038;-62
2020/12/11 03:37:24;;;;;;;41.25;18.95;;;2.50;77.80;;;;;;5026178;28;20321;-62
2020/12/11 03:39:50;;;;;;;36.60;17.15;;;2.50;77.60;;;;;;5024666;28;20034;-62
2020/12/11 03:42:15;;;;;;;37.88;18.42;;;2.40;77.60;;;;;;5025863;28;20033;-61
2020/12/11 03:44:41;;;;;;;30.83;15.70;;;2.50;77.20;;;;;;5027205;28;20053;-62
2020/12/11 03:47:06;;;;;;;33.17;16.52;;;2.60;76.90;;;;;;5025022;28;20038;-61
2020/12/11 03:49:32;;;;;;;33.55;16.15;;;2.70;76.80;;;;;;5026017;28;20384;-61
2020/12/11 03:51:57;;;;;;;34.45;16.65;;;2.70;76.60;;;;;;5024497;28;20265;-62
2020/12/11 03:54:23;;;;;;;32.95;16.42;;;2.70;76.80;;;;;;5025778;28;20030;-62
2020/12/11 03:56:48;;;;;;;35.53;16.95;;;2.60;76.30;;;;;;5027177;28;20045;-62
2020/12/11 03:59:14;;;;;;;31.67;15.60;;;2.60;76.40;;;;;;5025901;28;20044;-62
2020/12/11 04:01:40;;;;;;;33.13;16.27;;;2.60;76.60;;;;;;5025811;28;20038;-62
2020/12/11 04:04:05;;;;;;;31.70;16.58;;;2.50;76.80;;;;;;5034010;28;20029;-62
2020/12/11 04:06:31;;;;;;;31.08;15.57;;;2.60;76.30;;;;;;5045085;28;20037;-62
2020/12/11 04:08:56;;;;;;;31.80;16.42;;;2.60;76.20;;;;;;5046899;28;20029;-62
2020/12/11 04:11:22;;;;;;;32.90;16.38;;;2.40;76.50;;;;;;5044470;28;20041;-61
2020/12/11 04:13:48;;;;;;;30.85;16.20;;;2.50;76.20;;;;;;5044873;28;20138;-61
2020/12/11 04:16:14;;;;;;;35.15;16.38;;;2.50;76.40;;;;;;5044666;28;20053;-61
2020/12/11 04:18:40;;;;;;;34.53;16.90;;;2.40;76.70;;;;;;5045119;28;20033;-62
2020/12/11 04:21:10;;;;;;;31.83;16.48;;;2.40;76.80;;;;;;5042024;28;20220;-62
2020/12/11 04:23:36;;;;;;;32.67;16.50;;;2.50;76.50;;;;;;5025758;28;20061;-61
2020/12/11 04:26:01;;;;;;;33.13;16.80;;;2.50;76.30;;;;;;5022915;28;20038;-61
2020/12/11 04:28:27;;;;;;;32.97;16.85;;;2.50;76.30;;;;;;5024833;28;20260;-61
2020/12/11 04:30:52;;;;;;;31.30;16.38;;;2.40;76.50;;;;;;5024822;28;20377;-61
2020/12/11 04:33:18;;;;;;;33.47;16.17;;;2.50;76.10;;;;;;5024738;28;20049;-61
2020/12/11 04:35:43;;;;;;;34.20;16.23;;;2.50;76.30;;;;;;5026539;28;20032;-61
2020/12/11 04:38:09;;;;;;;32.97;16.20;;;2.50;76.30;;;;;;5025090;28;20045;-61
2020/12/11 04:40:34;;;;;;;33.63;16.33;;;2.40;76.50;;;;;;5023862;28;20041;-61
2020/12/11 04:43:00;;;;;;;29.70;15.32;;;2.10;77.10;;;;;;5024581;28;20104;-61
2020/12/11 04:45:26;;;;;;;30.50;15.00;;;2.30;77.60;;;;;;5024568;28;20238;-61
2020/12/11 04:47:51;;;;;;;28.40;14.38;;;2.40;77.00;;;;;;5026347;28;20089;-61
2020/12/11 04:50:17;;;;;;;28.30;13.88;;;2.10;76.90;;;;;;5023765;28;20037;-61
2020/12/11 04:52:44;;;;;;;30.98;15.15;;;2.20;77.10;;;;;;5037905;28;20048;-61
2020/12/11 04:55:15;;;;;;;28.38;13.43;;;2.50;77.20;;;;;;5044483;28;20033;-61
2020/12/11 04:57:47;;;;;;;30.88;14.82;;;2.50;76.10;;;;;;5043066;28;20037;-61
2020/12/11 05:00:13;;;;;;;29.65;14.88;;;2.50;76.20;;;;;;5043358;28;20037;-61
2020/12/11 05:02:40;;;;;;;30.50;15.57;;;2.40;76.50;;;;;;5045850;28;20321;-61
2020/12/11 05:05:06;;;;;;;28.33;14.90;;;2.40;76.70;;;;;;5043979;28;20044;-61
2020/12/11 05:07:32;;;;;;;31.45;14.98;;;2.40;76.80;;;;;;5043987;28;20378;-61
2020/12/11 05:09:58;;;;;;;30.25;15.75;;;2.40;77.00;;;;;;5042667;28;20075;-61
2020/12/11 05:12:24;;;;;;;29.70;15.13;;;2.50;76.80;;;;;;5043785;28;20327;-61
2020/12/11 05:14:57;;;;;;;28.50;14.27;;;2.50;76.50;;;;;;5045366;28;20053;-61
2020/12/11 05:17:26;;;;;;;33.20;15.30;;;2.40;76.60;;;;;;5044227;28;20038;-61
2020/12/11 05:19:52;;;;;;;28.60;14.18;;;2.30;76.60;;;;;;5026482;28;20101;-61
2020/12/11 05:22:18;;;;;;;30.58;15.77;;;2.40;76.60;;;;;;5044006;28;20045;-61
2020/12/11 05:24:48;;;;;;;30.77;15.10;;;2.20;76.90;;;;;;5043665;28;20242;-61
2020/12/11 05:27:41;;;;;;;32.13;15.43;;;2.40;76.80;;;;;;5043617;28;20049;-61
2020/12/11 05:30:10;;;;;;;30.08;15.30;;;2.30;77.10;;;;;;5043149;28;20063;-61
2020/12/11 05:32:41;;;;;;;32.60;15.63;;;2.20;77.60;;;;;;5057478;28;20036;-61
2020/12/11 05:35:22;;;;;;;30.67;15.32;;;2.20;77.40;;;;;;5039201;28;20030;-61
2020/12/11 05:37:52;;;;;;;33.15;16.10;;;2.10;77.80;;;;;;5022547;28;20044;-61
2020/12/11 05:40:22;;;;;;;35.92;16.05;;;2.20;77.20;;;;;;5023578;28;20041;-61
2020/12/11 05:43:14;;;;;;;35.00;15.82;;;2.50;77.20;;;;;;5023629;28;20191;-63
2020/12/11 05:45:51;;;;;;;36.03;16.15;;;2.40;76.70;;;;;;5023657;28;20246;-62
2020/12/11 05:48:16;;;;;;;33.30;16.33;;;2.50;76.80;;;;;;4990681;28;20068;-64
2020/12/11 05:50:42;;;;;;;34.00;16.90;;;2.40;76.80;;;;;;5024923;28;20229;-64
2020/12/11 05:53:07;;;;;;;35.38;17.88;;;2.40;76.60;;;;;;5022505;28;20049;-64
2020/12/11 05:55:33;;;;;;;33.13;16.83;;;2.40;77.30;;;;;;5022218;28;20030;-63
2020/12/11 05:57:59;;;;;;;32.88;15.63;;;2.20;77.50;;;;;;5022101;28;20278;-64
2020/12/11 06:00:25;;;;;;;32.53;16.10;;;2.10;77.60;;;;;;5023470;28;20148;-63
2020/12/11 06:02:51;;;;;;;34.72;16.55;;;2.40;77.80;;;;;;5024961;28;20037;-63
2020/12/11 06:05:19;;;;;;;34.80;17.27;;;2.40;77.30;;;;;;5023409;28;20042;-63
2020/12/11 06:07:45;;;;;;;35.13;17.30;;;2.30;77.30;;;;;;5021692;28;20030;-62
2020/12/11 06:10:21;;;;;;;33.95;16.27;;;2.40;77.20;;;;;;5022913;28;20098;-62
2020/12/11 06:12:47;;;;;;;31.42;15.65;;;2.40;77.00;;;;;;5023277;28;20363;-62
2020/12/11 06:15:22;;;;;;;34.03;16.90;;;2.40;77.00;;;;;;5022914;28;20030;-62
2020/12/11 06:18:08;;;;;;;34.92;16.98;;;2.50;76.90;;;;;;5024612;28;20033;-62
2020/12/11 06:20:34;;;;;;;31.58;16.42;;;2.50;77.00;;;;;;5042651;28;20225;-62
2020/12/11 06:23:18;;;;;;;32.58;17.48;;;2.50;77.00;;;;;;5043093;28;20037;-62
2020/12/11 06:25:52;;;;;;;35.55;17.90;;;2.50;76.80;;;;;;5042993;28;20025;-62
2020/12/11 06:28:43;;;;;;;36.15;17.80;;;2.50;76.50;;;;;;5041930;28;20074;-62
2020/12/11 06:31:13;;;;;;;34.85;16.73;;;2.50;76.60;;;;;;5033777;28;20232;-62
2020/12/11 06:33:43;;;;;;;30.40;16.10;;;2.50;76.00;;;;;;5022624;28;20101;-62
2020/12/11 06:36:09;;;;;;;31.65;16.52;;;2.30;76.80;;;;;;5022637;28;20037;-62
2020/12/11 06:38:41;;;;;;;33.67;16.52;;;2.40;77.10;;;;;;5024239;28;20101;-62
2020/12/11 06:41:07;;;;;;;32.42;16.98;;;2.40;76.90;;;;;;5023116;28;20037;-62
2020/12/11 06:43:53;;;;;;;34.92;16.92;;;2.40;76.80;;;;;;5022606;28;20057;-63
2020/12/11 06:46:20;;;;;;;36.38;18.45;;;2.40;77.00;;;;;;5022550;28;20037;-62
2020/12/11 06:49:21;;;;;;;32.88;16.90;;;2.30;77.10;;;;;;5023500;28;20233;-62
2020/12/11 06:51:47;;;;;;;34.42;17.60;;;2.40;76.70;;;;;;5026876;28;20040;-62
2020/12/11 06:54:19;;;;;;;30.65;15.57;;;2.30;77.30;;;;;;5026705;28;20301;-62
2020/12/11 06:56:45;;;;;;;33.95;16.13;;;2.30;77.30;;;;;;5027297;28;20272;-62
2020/12/11 06:59:33;;;;;;;33.08;16.58;;;2.20;77.10;;;;;;5025894;28;20375;-62
2020/12/11 07:02:05;;;;;;;29.73;15.35;;;2.30;76.70;;;;;;5026608;28;20029;-62
2020/12/11 07:04:44;;;;;;;34.60;15.77;;;2.40;76.50;;;;;;5026422;28;20277;-62
2020/12/11 07:07:10;;;;;;;29.98;15.30;;;2.30;77.00;;;;;;5026725;28;20125;-62
2020/12/11 07:09:39;;;;;;;32.10;16.67;;;2.30;76.80;;;;;;5025857;28;20053;-62
2020/12/11 07:12:04;;;;;;;33.45;17.17;;;2.10;76.70;;;;;;5026574;28;20042;-62
2020/12/11 07:14:30;;;;;;;32.38;16.15;;;2.20;76.80;;;;;;5026650;28;20100;-62
2020/12/11 07:16:56;;;;;;;32.30;15.52;;;2.30;76.70;;;;;;5026346;28;20042;-62
2020/12/11 07:19:21;;;;;;;30.08;15.52;;;2.30;76.60;;;;;;5026536;28;20042;-62
2020/12/11 07:21:47;;;;;;;32.22;16.33;;;2.40;76.00;;;;;;5026214;28;20048;-62
2020/12/11 07:24:12;;;;;;;29.90;15.38;;;2.40;76.30;;;;;;5024890;28;20033;-62
2020/12/11 07:26:38;;;;;;;32.17;15.57;;;2.40;76.30;;;;;;5027748;28;20033;-62
2020/12/11 07:29:13;;;;;;;30.40;15.02;;;2.50;75.70;;;;;;5026489;28;20126;-62
2020/12/11 07:31:43;;;;;;;32.10;16.33;;;2.50;75.60;;;;;;5025958;28;20053;-62
2020/12/11 07:34:15;;;;;;;28.95;14.85;;;2.40;76.00;;;;;;5024674;28;20100;-62
2020/12/11 07:36:43;;;;;;;36.65;16.42;;;2.50;76.10;;;;;;5025985;28;20045;-62
2020/12/11 07:39:16;;;;;;;32.83;16.75;;;2.40;76.50;;;;;;5023670;28;20034;-62
2020/12/11 07:41:43;;;;;;;35.67;16.75;;;2.40;77.10;;;;;;5027314;28;20081;-62
2020/12/11 07:44:09;;;;;;;33.80;16.52;;;2.40;77.20;;;;;;5025751;28;20059;-62
2020/12/11 07:46:39;;;;;;;34.00;16.90;;;2.30;77.10;;;;;;5025689;28;20065;-62
2020/12/11 07:49:04;;;;;;;33.90;16.08;;;2.40;77.20;;;;;;5024853;28;20116;-62
2020/12/11 07:51:30;;;;;;;32.83;15.60;;;2.30;77.60;;;;;;5025385;28;20033;-62
2020/12/11 07:53:56;;;;;;;32.53;16.17;;;2.20;77.30;;;;;;5025872;28;20034;-62
2020/12/11 07:56:26;;;;;;;30.35;14.73;;;2.40;77.60;;;;;;5025797;28;20089;-62
2020/12/11 07:58:52;;;;;;;33.95;15.55;;;2.40;77.00;;;;;;5025742;28;20033;-62
2020/12/11 08:01:17;;;;;;;28.42;14.98;;;2.40;77.40;;;;;;5023044;28;20073;-62
2020/12/11 08:03:43;;;;;;;30.88;14.77;;;2.50;76.90;;;;;;5024238;28;20034;-62
2020/12/11 08:06:12;;;;;;;29.88;15.25;;;2.50;76.70;;;;;;5025293;28;20321;-61
2020/12/11 08:09:40;;;;;;;31.33;14.00;;;2.90;77.00;;;;;;5075602;28;20362;-63
2020/12/11 08:12:15;;;;;;;32.78;15.88;;;2.70;76.40;;;;;;5058759;28;20033;-63
2020/12/11 08:14:40;;;;;;;31.73;15.40;;;2.90;75.80;;;;;;5061580;28;20013;-63
2020/12/11 08:17:10;;;;;;;31.67;14.95;;;2.80;75.70;;;;;;5076931;28;20052;-63
2020/12/11 08:19:36;;;;;;;29.95;14.38;;;2.80;76.20;;;;;;5095338;28;20055;-63
2020/12/11 08:22:16;;;;;;;31.80;15.48;;;2.50;76.70;;;;;;5080027;28;20033;-63
2020/12/11 08:24:42;;;;;;;33.10;15.82;;;2.30;77.50;;;;;;5078340;28;20043;-63
2020/12/11 08:27:21;;;;;;;27.95;14.77;;;2.50;77.00;;;;;;5079902;28;20335;-63
2020/12/11 08:30:11;;;;;;;29.30;14.52;;;2.50;76.90;;;;;;5080249;28;20025;-63
2020/12/11 08:32:36;;;;;;;29.48;14.20;;;2.60;77.10;;;;;;5080317;28;20240;-64
2020/12/11 08:35:22;;;;;;;30.20;13.95;;;2.40;77.40;;;;;;5079720;28;20106;-63
2020/12/11 08:37:52;;;;;;;29.17;14.55;;;2.40;77.60;;;;;;5079660;28;20338;-63
2020/12/11 08:40:18;;;;;;;26.52;12.82;;;2.50;77.20;;;;;;5078745;28;20041;-63
2020/12/11 08:42:56;;;;;;;26.13;13.00;;;2.60;77.20;;;;;;5079232;28;20041;-63
2020/12/11 08:45:33;;;;;;;26.05;13.57;;;2.40;76.90;;;;;;5059181;28;20155;-63
2020/12/11 08:48:23;;;;;;;26.95;13.70;;;2.60;76.80;;;;;;5060655;28;20035;-64
2020/12/11 08:50:58;;;;;;;26.30;12.63;;;2.60;76.70;;;;;;5060082;28;20049;-63
2020/12/11 08:53:26;;;;;;;24.27;12.20;;;2.60;77.00;;;;;;5059573;28;20040;-63
2020/12/11 08:55:52;;;;;;;30.75;15.65;;;2.70;76.20;;;;;;5059195;28;20324;-63
2020/12/11 08:58:17;;;;;;;27.83;13.55;;;2.90;76.30;;;;;;5059216;28;20055;-63
2020/12/11 09:00:43;;;;;;;23.55;13.25;;;2.90;75.70;;;;;;5058812;28;20104;-64
2020/12/11 09:03:08;;;;;;;24.67;13.88;;;2.90;75.70;;;;;;5058907;28;20040;-64
2020/12/11 09:05:34;;;;;;;25.23;13.35;;;2.70;76.20;;;;;;5060344;28;20029;-63
2020/12/11 09:08:00;;;;;;;24.88;12.90;;;2.80;76.50;;;;;;5074245;28;20045;-63
2020/12/11 09:10:26;;;;;;;26.38;13.70;;;2.90;75.90;;;;;;5091152;28;20037;-63
2020/12/11 09:12:53;;;;;;;26.10;13.70;;;3.10;75.50;;;;;;5058985;28;20033;-64
2020/12/11 09:15:19;;;;;;;22.70;12.70;;;3.40;75.00;;;;;;5058711;28;20079;-63
2020/12/11 09:17:45;;;;;;;24.25;11.75;;;3.30;75.00;;;;;;5060740;28;20236;-63
2020/12/11 09:20:10;;;;;;;19.60;11.07;;;3.60;75.30;;;;;;5050485;28;20245;-63
2020/12/11 09:22:36;;;;;;;22.75;11.57;;;3.60;74.40;;;;;;5077745;28;20029;-64
2020/12/11 09:25:04;;;;;;;22.02;11.38;;;3.70;73.40;;;;;;5019999;28;20068;-63
2020/12/11 09:27:30;;;;;;;22.33;11.45;;;3.90;73.00;;;;;;5028752;28;20068;-63
2020/12/11 09:30:06;;;;;;;24.15;12.15;;;3.90;71.40;;;;;;5047112;28;20033;-64
2020/12/11 09:33:17;;;;;;;19.63;11.10;;;3.80;72.50;;;;;;5024671;28;20029;-64
2020/12/11 09:35:20;;;;;;;17.95;10.48;;;3.90;72.50;;;;;;5027473;28;20277;-63
2020/12/11 09:37:49;;;;;;;18.13;9.55;;;3.80;71.60;;;;;;5024448;28;20041;-63
2020/12/11 09:40:19;;;;;;;16.98;9.82;;;4.00;70.90;;;;;;5025082;28;20044;-63
2020/12/11 09:45:23;;;;;;;17.83;9.82;;;4.00;70.20;;;;;;5025001;28;20022;-63
2020/12/11 09:48:03;;;;;;;17.10;10.50;;;4.20;70.30;;;;;;5046451;28;20030;-64
2020/12/11 09:50:36;;;;;;;20.25;10.27;;;4.10;70.60;;;;;;5076866;28;20033;-63
2020/12/11 09:55:35;;;;;;;20.88;11.57;;;3.90;72.00;;;;;;5023769;28;20046;-63
2020/12/11 09:58:01;;;;;;;22.10;12.07;;;3.80;72.70;;;;;;5032733;28;20337;-64
2020/12/11 10:00:26;;;;;;;24.45;11.63;;;3.90;73.10;;;;;;5044540;28;20040;-63
2020/12/11 10:03:04;;;;;;;21.67;11.65;;;3.90;72.60;;;;;;5046344;28;20163;-63
2020/12/11 10:05:30;;;;;;;20.85;11.40;;;4.10;72.30;;;;;;5025590;28;20427;-63
2020/12/11 10:07:56;;;;;;;20.17;11.30;;;4.00;72.40;;;;;;5039718;28;20045;-63
2020/12/11 10:10:22;;;;;;;21.52;11.50;;;3.90;72.70;;;;;;5033778;28;20044;-63
2020/12/11 10:12:47;;;;;;;20.10;11.13;;;3.90;72.40;;;;;;5030406;28;20044;-63
2020/12/11 10:15:15;;;;;;;20.48;11.05;;;3.80;72.50;;;;;;5043089;28;20036;-63
2020/12/11 10:17:40;;;;;;;19.30;10.68;;;3.80;72.60;;;;;;5057663;28;20097;-63
2020/12/11 10:20:06;;;;;;;21.08;11.77;;;3.90;73.40;;;;;;5041458;28;20041;-63
2020/12/11 10:22:32;;;;;;;18.48;10.45;;;3.90;73.20;;;;;;5032407;28;20052;-63
2020/12/11 10:24:58;;;;;;;19.80;10.52;;;4.00;72.10;;;;;;5031356;28;20332;-63
2020/12/11 10:27:24;;;;;;;22.88;11.68;;;4.00;71.60;;;;;;5043755;28;20059;-63
2020/12/11 10:29:49;;;;;;;20.77;10.57;;;4.10;71.50;;;;;;5046128;28;20033;-63
2020/12/11 10:32:15;;;;;;;19.63;10.02;;;4.20;71.40;;;;;;5043434;28;20033;-63
2020/12/11 10:34:40;;;;;;;18.70;10.85;;;4.10;71.30;;;;;;5043736;28;20034;-64
2020/12/11 10:37:11;;;;;;;19.48;10.52;;;4.00;71.30;;;;;;5059300;28;20034;-60
2020/12/11 10:39:37;;;;;;;22.00;11.55;;;3.90;72.10;;;;;;5042447;28;20034;-61
2020/12/11 10:42:03;;;;;;;20.85;11.65;;;4.10;71.70;;;;;;5045227;28;20339;-61
2020/12/11 10:44:29;;;;;;;19.20;10.85;;;4.40;71.70;;;;;;5043676;28;20032;-60
2020/12/11 10:46:54;;;;;;;20.90;10.93;;;4.60;71.00;;;;;;5043624;28;20037;-62
2020/12/11 10:49:21;;;;;;;18.40;11.23;;;4.60;71.20;;;;;;5043966;28;20087;-61
2020/12/11 10:51:49;;;;;;;20.27;11.38;;;4.50;70.60;;;;;;5043720;28;20096;-61
2020/12/11 10:54:17;;;;;;;19.48;10.48;;;4.60;70.80;;;;;;5043352;28;20037;-62
2020/12/11 10:56:44;;;;;;;19.20;10.65;;;4.80;70.30;;;;;;5045808;28;20021;-61
2020/12/11 10:59:09;;;;;;;17.27;9.85;;;5.10;69.10;;;;;;5043850;28;20034;-62
2020/12/11 11:01:35;;;;;;;19.67;9.98;;;5.00;68.40;;;;;;5043641;28;20067;-61
2020/12/11 11:04:01;;;;;;;18.70;10.82;;;4.90;67.80;;;;;;5034880;28;20034;-61
2020/12/11 11:06:34;;;;;;;19.63;10.25;;;4.50;68.90;;;;;;5058362;28;20037;-61
2020/12/11 11:11:39;;;;;;;18.38;9.68;;;4.30;69.90;;;;;;5076166;28;20053;-61
2020/12/11 11:14:17;;;;;;;19.48;10.63;;;4.20;70.40;;;;;;5026088;28;20041;-61
2020/12/11 11:27:39;;;;;;;20.15;11.18;;;4.40;70.50;;;;;;5024295;28;20252;-62
2020/12/11 11:30:05;;;;;;;20.35;11.05;;;4.40;71.00;;;;;;5026857;28;20351;-62
2020/12/11 11:32:30;;;;;;;22.02;11.30;;;4.20;70.60;;;;;;5032695;28;20042;-62
2020/12/11 11:34:56;;;;;;;22.05;11.10;;;4.20;71.00;;;;;;5022950;28;20034;-61
2020/12/11 11:37:21;;;;;;;20.58;11.43;;;4.30;71.40;;;;;;5054798;28;20092;-62
2020/12/11 11:39:48;;;;;;;21.30;11.50;;;4.40;70.60;;;;;;5027587;28;20060;-61
2020/12/11 11:42:14;;;;;;;18.70;10.77;;;4.30;70.80;;;;;;5041125;28;20332;-62
2020/12/11 11:44:53;;;;;;;19.40;10.85;;;4.30;71.20;;;;;;5024386;28;20030;-61
2020/12/11 11:47:19;;;;;;;19.95;11.63;;;4.20;70.90;;;;;;5005647;28;20060;-62
2020/12/11 11:55:01;;;;;;;;;;;4.40;70.00;;;;;;5022383;28;20040;-61
2020/12/11 11:57:26;;;;;;;19.08;10.02;;;4.50;69.80;;;;;;5022507;28;19909;-61
2020/12/11 11:59:52;;;;;;;22.42;11.35;;;4.50;69.70;;;;;;5023593;28;20178;-62
2020/12/11 12:02:18;;;;;;;19.77;10.88;;;4.70;69.30;;;;;;5023164;28;20038;-61
2020/12/11 12:04:43;;;;;;;18.80;10.82;;;4.50;69.30;;;;;;5035009;28;20233;-61
2020/12/11 12:07:09;;;;;;;19.80;10.23;;;4.40;69.10;;;;;;5033643;28;20029;-61
2020/12/11 12:09:35;;;;;;;23.95;11.07;;;4.60;69.50;;;;;;5026312;28;20060;-62
2020/12/11 12:12:00;;;;;;;19.00;11.02;;;4.60;69.30;;;;;;5076286;28;20384;-61
2020/12/11 12:14:26;;;;;;;18.55;10.40;;;4.50;68.80;;;;;;5042118;28;20044;-61
2020/12/11 12:16:54;;;;;;;20.00;10.80;;;4.70;68.00;;;;;;5042270;28;20082;-61
2020/12/11 12:19:27;;;;;;;19.17;11.13;;;4.40;69.20;;;;;;5042204;28;20084;-62
2020/12/11 12:29:56;;;;;;;17.92;10.15;;;4.90;67.30;;;;;;5043535;28;20064;-61
2020/12/11 12:32:24;;;;;;;19.77;10.80;;;5.20;66.60;;;;;;5023837;28;20038;-61
2020/12/11 12:34:58;;;;;;;20.55;10.45;;;5.40;66.40;;;;;;5031072;28;20062;-61
2020/12/11 12:45:24;;;;;;;;;;;6.00;66.10;;;;;;5042965;28;20033;-61
2020/12/11 12:47:50;;;;;;;23.13;10.02;;;5.90;65.50;;;;;;5043753;28;19913;-61
2020/12/11 12:50:15;;;;;;;19.10;10.60;;;5.60;65.90;;;;;;5006835;28;20060;-61
2020/12/11 12:52:41;;;;;;;19.23;10.63;;;5.40;65.50;;;;;;5035752;28;20034;-62
2020/12/11 12:55:08;;;;;;;25.65;12.15;;;5.30;66.10;;;;;;5042282;28;20033;-61
2020/12/11 12:57:41;;;;;;;22.30;11.55;;;5.00;66.80;;;;;;5045676;28;20038;-61
2020/12/11 13:05:20;;;;;;;19.15;11.07;;;4.90;67.90;;;;;;5045461;28;20045;-62
2020/12/11 13:07:46;;;;;;;19.70;10.88;;;4.70;67.80;;;;;;5045132;28;20241;-61
2020/12/11 13:10:11;;;;;;;18.70;11.05;;;4.70;67.90;;;;;;5045965;28;20214;-62
2020/12/11 13:12:38;;;;;;;22.25;10.82;;;4.90;68.20;;;;;;5045242;28;20159;-61
2020/12/11 13:15:03;;;;;;;18.60;11.20;;;4.90;68.00;;;;;;5046873;28;20034;-62
2020/12/11 13:17:29;;;;;;;22.23;11.30;;;5.10;68.10;;;;;;5044025;28;20282;-62
2020/12/11 13:19:55;;;;;;;18.70;10.65;;;4.80;67.70;;;;;;5045340;28;20041;-61
2020/12/11 13:22:31;;;;;;;20.33;11.00;;;4.80;68.30;;;;;;5045344;28;20056;-61
2020/12/11 13:27:41;;;;;;;17.98;10.80;;;4.90;68.30;;;;;;5045307;28;20041;-64
2020/12/11 13:30:07;;;;;;;20.13;11.45;;;4.80;68.70;;;;;;5045310;28;20089;-64